Home > Products > Valid Products > TAF

000
FTUS41 KRLX 250500
TAFEKN
TAF
KEKN 250520Z 2506/2606 00000KT P6SM SCT250
     FM251400 17008KT P6SM OVC060
     FM251600 17009G14KT 5SM -SHRA BKN060
     FM251800 18007KT 3SM -SHRA VCTS OVC035CB
     FM252000 23008G13KT 3SM -SHRA VCTS OVC025CB
     FM252300 26011G22KT 5SM -SHRA BKN025
     FM260200 29012G19KT P6SM BKN010=



000
FTUS41 KRLX 250500
TAFCKB
TAF
KCKB 250520Z 2506/2606 VRB03KT P6SM SCT120
     FM251300 15007KT P6SM BKN060
     FM251500 17010G15KT 5SM -SHRA OVC035
     FM251800 19009G15KT 3SM -SHRA VCTS OVC025CB
     FM252100 23010G20KT 5SM -SHRA VCTS BKN030CB
     FM260300 27010G15KT P6SM BKN012=



000
FTUS41 KRLX 250500
TAFPKB
TAF
KPKB 250520Z 2506/2606 10005KT P6SM SCT250
     FM251200 15008KT 5SM -SHRA OVC060
     FM251500 18011G17KT 4SM -SHRA OVC020
     FM251600 19011G17KT 3SM -SHRA VCTS OVC020CB
     FM251800 19011KT 5SM -SHRA VCTS OVC020CB
     FM252000 23012G19KT P6SM BKN015
     FM252300 27012G26KT P6SM SCT015=



000
FTUS41 KRLX 250500
TAFHTS
TAF
KHTS 250520Z 2506/2606 VRB03KT P6SM BKN250
     FM251100 18009KT 4SM -SHRA OVC035
     FM251400 19010G16KT 3SM -SHRA OVC025
     FM251600 20011G21KT 4SM -SHRA VCTS OVC025CB
     FM251900 24013G25KT P6SM BKN035
     FM252100 28016G26KT P6SM SCT035
     FM260100 29009G18KT P6SM SKC=



000
FTUS41 KRLX 250500
TAFCRW
TAF
KCRW 250520Z 2506/2606 17003KT P6SM SCT250
     FM251200 16009KT 6SM -SHRA BKN060
     FM251400 18010G18KT 4SM -SHRA OVC035
     FM251600 20012G23KT 3SM -SHRA VCTS OVC025CB
     FM252000 25015G26KT P6SM VCTS BKN025CB
     FM252100 26016G27KT P6SM BKN025
     FM252300 28013G26KT P6SM SCT025=



000
FTUS41 KRLX 250500
TAFBKW
TAF
KBKW 250520Z 2506/2606 16011G15KT P6SM BKN250
     FM251300 18013G20KT 5SM -SHRA OVC040
     FM251600 19012G24KT 4SM -SHRA VCTS SCT015CB OVC035
     FM251700 21013G25KT 3SM -SHRA VCTS SCT015CB OVC025
     FM252100 25015G29KT 6SM BR BKN025
     FM260000 29015G29KT P6SM BKN010
     FM260400 30010G15KT P6SM SCT012=



000
FTUS41 KRLX 250200 AAA
TAFHTS
TAF AMD
KHTS 250220Z 2502/2524 11004KT P6SM BKN250
     FM250700 15007KT P6SM BKN120
     FM251100 18009KT 4SM -SHRA VCTS OVC035CB
     FM251400 19010G16KT 3SM -SHRA OVC025
     FM251600 20011G21KT 4SM -SHRA VCTS OVC035CB
     FM251800 22012G23KT P6SM VCTS BKN035CB
     FM251900 24013G25KT P6SM BKN035
     FM252100 28016G26KT P6SM SCT035=



000
FTUS41 KRLX 250200 AAA
TAFPKB
TAF AMD
KPKB 250220Z 2502/2524 10004KT P6SM SCT130 BKN200
     FM251000 15007KT P6SM BKN120
     FM251200 15008KT 5SM -SHRA BKN060
     FM251500 19007KT 4SM -SHRA OVC025
     FM251600 19007KT 3SM -SHRA VCTS OVC025CB
     FM251900 21009G16KT 6SM -SHRA VCTS BKN025CB
     FM252000 23009G16KT P6SM BKN025
     FM252300 28010G20KT P6SM SCT035=



000
FTUS41 KRLX 250200 AAA
TAFCKB
TAF AMD
KCKB 250220Z 2502/2524 VRB03KT P6SM BKN150
     FM251300 15007KT P6SM BKN060
     FM251500 17010G15KT 5SM -SHRA OVC050
     FM251800 19009G15KT 3SM -SHRA VCTS OVC035CB
     FM252100 23010G20KT 5SM -SHRA VCTS BKN035CB
     FM252200 24011G22KT 6SM -SHRA VCTS BKN035CB
     FM252300 26012G24KT P6SM BKN025=



000
FTUS41 KRLX 250200 AAA
TAFCRW
TAF AMD
KCRW 250220Z 2502/2524 10004KT P6SM BKN250
     FM250900 16008KT P6SM BKN120
     FM251200 16009KT 6SM -SHRA BKN060
     FM251400 18010G18KT 4SM -SHRA OVC035
     FM251600 20012G23KT 3SM -SHRA VCTS OVC025CB
     FM252000 25015G26KT P6SM VCTS BKN035CB
     FM252100 26016G27KT P6SM BKN025
     FM252300 28013G26KT P6SM SCT035=



000
FTUS41 KRLX 250200 AAA
TAFEKN
TAF AMD
KEKN 250220Z 2502/2524 00000KT P6SM BKN100
     FM250800 16004KT P6SM BKN120
     FM251400 17008KT P6SM BKN070
     FM251600 17009G14KT 5SM -SHRA BKN060
     FM251800 18007KT 3SM -SHRA VCTS OVC035CB
     FM252000 23008G13KT 3SM -SHRA VCTS OVC025CB
     FM252300 26011G22KT 5SM -SHRA BKN025=



000
FTUS41 KRLX 250200 AAA
TAFBKW
TAF AMD
KBKW 250220Z 2502/2524 14008KT P6SM SCT250
     FM251000 16012KT P6SM BKN130
     FM251300 18013G20KT 5SM -SHRA OVC040
     FM251600 19012G24KT 4SM -SHRA VCTS OVC035CB
     FM251700 21013G25KT 3SM -SHRA VCTS OVC025CB
     FM252100 25015G29KT 6SM BR BKN025=



000
FTUS41 KRLX 242300
TAFBKW
TAF
KBKW 242340Z 2500/2524 10005KT P6SM BKN250
     FM250300 16009KT P6SM BKN150
     FM251000 16012G19KT P6SM BKN130
     FM251300 18013G21KT 5SM -SHRA OVC040
     FM251600 20013G22KT 3SM -SHRA VCTS OVC025CB
     FM252100 25015G26KT 6SM -SHRA BKN025=



000
FTUS41 KRLX 242300
TAFCKB
TAF
KCKB 242340Z 2500/2524 VRB03KT P6SM SCT250
     FM250300 00000KT P6SM BKN140
     FM250700 14005KT P6SM BKN120
     FM251500 17010G16KT 5SM -SHRA OVC050
     FM251800 18009G14KT 3SM -SHRA VCTS OVC035CB
     FM252100 23011G18KT 6SM -SHRA VCTS BKN035CB
     FM252300 26012G20KT P6SM BKN025=



000
FTUS41 KRLX 242300
TAFEKN
TAF
KEKN 242340Z 2500/2524 VRB03KT P6SM SCT250
     FM250500 00000KT P6SM SCT120
     FM250800 16004KT P6SM BKN150
     FM251400 17008KT P6SM BKN070
     FM251600 17009G15KT 5SM -SHRA BKN060
     FM251800 18007KT 3SM -SHRA VCTS OVC035CB
     FM252000 23008KT 3SM -SHRA VCTS OVC025CB
     FM252300 26011G17KT 5SM -SHRA BKN025=



000
FTUS41 KRLX 242300
TAFHTS
TAF
KHTS 242340Z 2500/2524 VRB03KT P6SM BKN200
     FM250700 15007KT P6SM BKN110
     FM251100 18009KT 4SM -SHRA VCTS OVC035CB
     FM251400 19010KT 3SM -SHRA OVC025
     FM251600 20011G17KT 4SM -SHRA VCTS OVC035CB
     FM251800 22012G19KT P6SM VCTS BKN035CB
     FM251900 24013G22KT P6SM BKN035
     FM252100 28016G27KT P6SM SCT035=



000
FTUS41 KRLX 242300
TAFPKB
TAF
KPKB 242340Z 2500/2524 VRB03KT P6SM BKN140
     FM251000 15007KT P6SM BKN120
     FM251200 15008KT 5SM -SHRA BKN060
     FM251500 19007KT 3SM -SHRA VCTS OVC025CB
     FM251900 21009G14KT 6SM -SHRA VCTS BKN025CB
     FM252000 23009G14KT P6SM BKN025
     FM252300 28010G15KT P6SM SCT035=



000
FTUS41 KRLX 242300
TAFCRW
TAF
KCRW 242340Z 2500/2524 VRB03KT P6SM BKN150
     FM250800 16007KT P6SM BKN120
     FM251300 17009KT 5SM -SHRA BKN050
     FM251500 20012G19KT 3SM -SHRA VCTS OVC025CB
     FM252000 25015G26KT P6SM VCTS BKN035CB
     FM252100 26016G27KT P6SM BKN025
     FM252300 28013G22KT P6SM SCT035=



000
FTUS41 KRLX 241700
TAFHTS
TAF
KHTS 241720Z 2418/2518 09008KT P6SM BKN120
     FM251100 17007KT 5SM SHRA OVC040
     FM251200 18006KT 4SM SHRA OVC035
     FM251500 19011G16KT 4SM SHRA OVC025
     FM251700 21011G17KT 5SM SHRA BKN035=



000
FTUS41 KRLX 241700
TAFCKB
TAF
KCKB 241720Z 2418/2518 02008KT P6SM SCT110
     FM242000 03004KT P6SM BKN110
     FM250000 05004KT P6SM SCT140
     FM251100 15005KT P6SM BKN100
     FM251400 17009KT 6SM BR BKN060
     FM251500 18011G16KT 5SM SHRA OVC050=



000
FTUS41 KRLX 241700
TAFCRW
TAF
KCRW 241720Z 2418/2518 07007KT P6SM SCT110 BKN160
     FM242100 08004KT P6SM SCT120
     FM250000 07005KT P6SM SCT200
     FM251100 17006KT P6SM BKN080
     FM251200 17007KT 6SM SHRA BKN060
     FM251500 18011G16KT 4SM SHRA OVC035=



000
FTUS41 KRLX 241700
TAFBKW
TAF
KBKW 241720Z 2418/2518 VRB03KT P6SM BKN090
     FM242000 17004KT P6SM SCT100
     FM242300 14005KT P6SM SCT200
     FM250700 15009KT P6SM BKN180
     FM251300 16011G16KT 6SM SHRA BKN050
     FM251600 18013G19KT 4SM SHRA OVC030=



000
FTUS41 KRLX 241700
TAFEKN
TAF
KEKN 241720Z 2418/2518 34004KT P6SM SCT100
     FM242000 VRB03KT P6SM BKN100
     FM242300 VRB03KT P6SM SCT200
     FM251200 18005KT P6SM BKN110
     FM251400 18011G16KT P6SM BKN070
     FM251600 18012G19KT 6SM SHRA BKN060=



000
FTUS41 KRLX 241700
TAFPKB
TAF
KPKB 241720Z 2418/2518 08009KT P6SM SCT110 BKN180
     FM242000 09005KT P6SM SCT130
     FM251100 15006KT 6SM BR BKN080
     FM251200 15006KT 6SM SHRA BKN060
     FM251500 18008KT 4SM SHRA OVC025=



000
FTUS41 KRLX 241500 AAA
TAFHTS
TAF AMD
KHTS 241511Z 2415/2512 07009KT P6SM BKN100
     FM241900 09005KT P6SM SCT250
     FM250400 12008KT P6SM BKN250
     FM250700 15009KT P6SM BKN250
     FM251000 17009KT P6SM BKN060
     FM251100 18009KT 6SM -SHRA OVC035=



000
FTUS41 KRLX 241500 AAA
TAFCKB
TAF AMD
KCKB 241511Z 2415/2512 02005KT P6SM BKN110
     FM242000 04007KT P6SM BKN100
     FM242300 05004KT P6SM SCT250
     FM250300 09004KT P6SM SCT110
     FM250600 12006KT P6SM SCT110
     FM250900 15008KT P6SM BKN120=



000
FTUS41 KRLX 241500 AAA
TAFCRW
TAF AMD
KCRW 241511Z 2415/2512 06007KT P6SM BKN100
     FM241900 09004KT P6SM SCT250
     FM242300 09005KT P6SM SCT250
     FM250500 13006KT P6SM SCT250
     FM251100 18009KT P6SM BKN050=



000
FTUS41 KRLX 241500 AAA
TAFBKW
TAF AMD
KBKW 241511Z 2415/2512 09005KT P6SM BKN090
     FM242000 13006KT P6SM SCT250
     FM250800 16011G17KT P6SM BKN250=



000
FTUS41 KRLX 241500 AAA
TAFPKB
TAF AMD
KPKB 241511Z 2415/2512 09007KT P6SM BKN100
     FM242000 08005KT P6SM SCT100
     FM250400 11007KT P6SM SCT110
     FM250700 14008KT P6SM BKN250=



000
FTUS41 KRLX 241500 AAA
TAFEKN
TAF AMD
KEKN 241511Z 2415/2512 00000KT P6SM BKN110
     FM241600 33004KT P6SM BKN100
     FM242000 02006KT P6SM BKN090
     FM250000 00000KT P6SM SCT250
     FM250500 12004KT P6SM SCT100
     FM250800 16006KT P6SM BKN250=



000
FTUS41 KRLX 241100
TAFCKB
TAF
KCKB 241120Z 2412/2512 00000KT P6SM BKN120
     FM241600 02004KT P6SM BKN110
     FM242000 04005KT P6SM BKN100
     FM242300 05004KT P6SM SCT250
     FM250300 09004KT P6SM SCT110
     FM250600 12006KT P6SM SCT110
     FM250900 15008KT P6SM BKN120=



000
FTUS41 KRLX 241100
TAFEKN
TAF
KEKN 241120Z 2412/2512 00000KT P6SM BKN120
     FM241600 33004KT P6SM BKN100
     FM242000 02005KT P6SM BKN090
     FM250000 00000KT P6SM SCT250
     FM250500 12004KT P6SM SCT100
     FM250800 16006KT P6SM BKN250=



000
FTUS41 KRLX 241100
TAFCRW
TAF
KCRW 241120Z 2412/2512 07004KT P6SM BKN100
     FM241900 09004KT P6SM SCT250
     FM242300 09005KT P6SM SCT250
     FM250500 13006KT P6SM SCT250
     FM251100 18009KT P6SM BKN050=



000
FTUS41 KRLX 241100
TAFHTS
TAF
KHTS 241120Z 2412/2512 07005KT P6SM BKN100
     FM241900 09005KT P6SM SCT250
     FM250400 12008KT P6SM BKN250
     FM250700 15009KT P6SM BKN250
     FM251000 17009KT P6SM BKN060
     FM251100 18009KT 6SM -SHRA OVC035=



000
FTUS41 KRLX 241100
TAFPKB
TAF
KPKB 241120Z 2412/2512 08004KT P6SM OVC100
     FM242000 08005KT P6SM SCT100
     FM250400 11007KT P6SM SCT110
     FM250700 14008KT P6SM BKN250=



000
FTUS41 KRLX 241100
TAFBKW
TAF
KBKW 241120Z 2412/2512 09004KT P6SM BKN100
     FM242000 13006KT P6SM SCT250
     FM250800 16011G17KT P6SM BKN250=



000
FTUS41 KRLX 241000 AAA
TAFBKW
TAF AMD
KBKW 241012Z 2410/2506 VRB03KT P6SM BKN100
     FM241400 09004KT P6SM BKN080
     FM242000 13006KT P6SM SCT250
     FM250500 14009KT P6SM SCT250=



000
FTUS41 KRLX 241000 AAA
TAFEKN
TAF AMD
KEKN 241011Z 2410/2506 00000KT P6SM BKN120
     FM241600 33004KT P6SM BKN100
     FM242000 02005KT P6SM BKN090
     FM250000 00000KT P6SM SCT250
     FM250500 12004KT P6SM SCT100=



000
FTUS41 KRLX 241000 CCA
TAFCKB
TAF COR
KCKB 241011Z 2410/2506 00000KT P6SM BKN120
     FM241600 02004KT P6SM BKN110
     FM242000 04005KT P6SM BKN100
     FM242300 05004KT P6SM SCT250
     FM250300 09004KT P6SM SCT110=



000
FTUS41 KRLX 241000 AAA
TAFCKB
TAF AMD
KCKB 241011Z 2410/2506 00000KT P6SM BKN120
     FM241600 02004KT P6SM SCT110
     FM242000 04005KT P6SM BKN100
     FM242300 05004KT P6SM SCT250
     FM250300 09004KT P6SM SCT110=



000
FTUS41 KRLX 241000 AAA
TAFCRW
TAF AMD
KCRW 241010Z 2410/2506 00000KT P6SM BKN120
     FM241400 07004KT P6SM BKN100
     FM241900 09004KT P6SM SCT250
     FM242300 09005KT P6SM SCT250=



000
FTUS41 KRLX 240900 AAA
TAFPKB
TAF AMD
KPKB 240936Z 2410/2506 VRB03KT P6SM BKN140
     FM241400 08004KT P6SM BKN100
     FM242000 08005KT P6SM SCT100
     FM250400 11007KT P6SM SCT110=



000
FTUS41 KRLX 240500
TAFCKB
TAF
KCKB 240527Z 2406/2506 00000KT P6SM SKC
     FM241600 02004KT P6SM SCT110
     FM242000 04005KT P6SM BKN100
     FM242300 05004KT P6SM SCT250
     FM250300 09004KT P6SM SCT110=



000
FTUS41 KRLX 240500
TAFBKW
TAF
KBKW 240527Z 2406/2506 VRB03KT P6SM SKC
     FM241400 09004KT P6SM BKN080
     FM242000 13006KT P6SM SCT250
     FM250500 14009KT P6SM SCT250=



000
FTUS41 KRLX 240500
TAFHTS
TAF
KHTS 240527Z 2406/2506 VRB03KT P6SM SKC
     FM241100 09003KT P6SM BKN100
     FM241900 09005KT P6SM SCT250
     FM250400 12008KT P6SM BKN250=



000
FTUS41 KRLX 240500
TAFEKN
TAF
KEKN 240527Z 2406/2506 00000KT P6SM SKC
     FM241600 33004KT P6SM SCT100
     FM242000 02005KT P6SM BKN090
     FM250000 00000KT P6SM SCT250
     FM250500 12004KT P6SM SCT100=



000
FTUS41 KRLX 240500
TAFPKB
TAF
KPKB 240527Z 2406/2506 VRB03KT P6SM SKC
     FM241400 08004KT P6SM BKN100
     FM242000 08005KT P6SM SCT100
     FM250400 11007KT P6SM SCT110=



000
FTUS41 KRLX 240500
TAFCRW
TAF
KCRW 240527Z 2406/2506 00000KT P6SM SKC
     FM241400 07004KT P6SM BKN100
     FM241900 09004KT P6SM SCT250
     FM242300 09005KT P6SM SCT250=



000
FTUS41 KRLX 240200 AAA
TAFPKB
TAF AMD
KPKB 240253Z 2403/2424 03005KT P6SM SKC
     FM240500 VRB03KT P6SM SKC
     FM240800 00000KT P6SM FEW150
     FM241500 VRB03KT P6SM SCT250=



000
FTUS41 KRLX 240200 AAA
TAFHTS
TAF AMD
KHTS 240253Z 2403/2424 03004KT P6SM SKC
     FM240500 VRB03KT P6SM SKC
     FM241100 00000KT P6SM SCT140
     FM241400 09006KT P6SM SCT100=



000
FTUS41 KRLX 240200 AAA
TAFCKB
TAF AMD
KCKB 240253Z 2403/2424 36006KT P6SM SCT060
     FM240500 VRB03KT P6SM SKC
     FM240800 00000KT P6SM SCT140
     FM241500 00000KT P6SM SCT250
     FM242100 03004KT P6SM BKN250=



000
FTUS41 KRLX 240200 AAB
TAFEKN
TAF AMD
KEKN 240253Z 2403/2424 35004KT P6SM SKC
     FM240400 00000KT P6SM SKC
     FM240900 00000KT P6SM FEW130
     FM241700 VRB03KT P6SM SCT250=



000
FTUS41 KRLX 240200 AAA
TAFCRW
TAF AMD
KCRW 240253Z 2403/2424 VRB03KT P6SM SKC
     FM241100 00000KT P6SM SCT140
     FM241500 08004KT P6SM SCT100=



000
FTUS41 KRLX 240200 AAA
TAFBKW
TAF AMD
KBKW 240253Z 2403/2424 36005KT P6SM SKC
     FM240400 00000KT P6SM SKC
     FM241100 00000KT P6SM SCT130
     FM241700 12004KT P6SM SCT250=



000
FTUS41 KRLX 232300 AAA
TAFEKN
TAF AMD
KEKN 232356Z 2400/2424 32010G16KT P6SM FEW050
     FM240200 32004KT P6SM SKC
     FM240300 00000KT P6SM SKC
     FM240900 00000KT P6SM FEW130
     FM241700 VRB03KT P6SM SCT250=



000
FTUS41 KRLX 232300 RRA
TAFPKB
TAF
KPKB 232343Z 2400/2424 35007KT P6SM SKC
     FM240300 00000KT P6SM SKC
     FM240800 00000KT P6SM FEW150
     FM241500 VRB03KT P6SM SCT250=



000
FTUS41 KRLX 232300 RRA
TAFEKN
TAF
KEKN 232343Z 2400/2424 32010G16KT P6SM BKN050
     FM240200 32004KT P6SM SCT050
     FM240300 00000KT P6SM SKC
     FM240900 00000KT P6SM FEW130
     FM241700 VRB03KT P6SM SCT250=



000
FTUS41 KRLX 232300 RRA
TAFCRW
TAF
KCRW 232343Z 2400/2424 34007KT P6SM SKC
     FM240200 VRB03KT P6SM SKC
     FM241100 00000KT P6SM SCT140
     FM241500 08004KT P6SM SCT100=



000
FTUS41 KRLX 232300 RRA
TAFHTS
TAF
KHTS 232343Z 2400/2424 33006KT P6SM SKC
     FM240300 00000KT P6SM SKC
     FM241100 00000KT P6SM SCT140
     FM241400 09006KT P6SM SCT100=



000
FTUS41 KRLX 232300 RRA
TAFBKW
TAF
KBKW 232343Z 2400/2424 34010KT P6SM SKC
     FM240200 34005KT P6SM SKC
     FM240400 00000KT P6SM SKC
     FM241100 00000KT P6SM SCT130
     FM241700 12004KT P6SM SCT250=



000
FTUS41 KRLX 232300 RRA
TAFCKB
TAF
KCKB 232343Z 2400/2424 33009KT P6SM SCT060
     FM240200 VRB03KT P6SM SKC
     FM240800 00000KT P6SM FEW150
     FM241100 00000KT P6SM SCT140
     FM241500 00000KT P6SM SCT250
     FM242100 03004KT P6SM BKN250=



000
FTUS41 KRLX 231700
TAFEKN
TAF
KEKN 231720Z 2318/2418 31011G17KT P6SM BKN050
     FM232300 31006KT P6SM FEW080
     FM240100 00000KT P6SM FEW080
     FM240500 00000KT P6SM SKC
     FM241500 00000KT P6SM SCT100=



000
FTUS41 KRLX 231700
TAFHTS
TAF
KHTS 231720Z 2318/2418 33008KT P6SM SKC
     FM232300 34004KT P6SM FEW150
     FM240000 00000KT P6SM FEW100
     FM240800 00000KT P6SM SCT250
     FM240900 00000KT P6SM SCT100
     FM241400 09004KT P6SM SCT080=



000
FTUS41 KRLX 231700
TAFCKB
TAF
KCKB 231720Z 2318/2418 32010G15KT P6SM BKN050
     FM240000 33006KT P6SM FEW100
     FM240500 VRB03KT P6SM SKC
     FM241500 00000KT P6SM SCT100=



000
FTUS41 KRLX 231700
TAFPKB
TAF
KPKB 231720Z 2318/2418 33008G14KT P6SM FEW090
     FM232300 34004KT P6SM FEW100
     FM240000 00000KT P6SM FEW080
     FM240500 00000KT P6SM SKC
     FM241500 VRB03KT P6SM SCT080=



000
FTUS41 KRLX 231700
TAFCRW
TAF
KCRW 231720Z 2318/2418 34008KT P6SM BKN050
     FM232300 34004KT P6SM FEW150
     FM240000 00000KT P6SM FEW100
     FM240500 00000KT P6SM SKC
     FM241100 00000KT P6SM SCT100=



000
FTUS41 KRLX 231700
TAFBKW
TAF
KBKW 231720Z 2318/2418 32010G18KT P6SM SKC
     FM240000 32005KT P6SM FEW150
     FM240500 00000KT P6SM SKC
     FM241300 00000KT P6SM SCT100=



000
FTUS41 KRLX 231400 AAA
TAFEKN
TAF AMD
KEKN 231446Z 2315/2412 31011G18KT P6SM OVC040
     FM231800 31011G20KT P6SM SCT045
     FM232100 31010G18KT P6SM SKC
     FM240100 00000KT P6SM SKC=



000
FTUS41 KRLX 231400 AAA
TAFCRW
TAF AMD
KCRW 231446Z 2315/2412 30007KT P6SM SKC
     FM231600 32009G18KT P6SM SKC
     FM240100 00000KT P6SM SKC=



000
FTUS41 KRLX 231400 AAA
TAFBKW
TAF AMD
KBKW 231446Z 2315/2412 32011G18KT P6SM SCT030
     FM231700 32011G20KT P6SM SKC
     FM240000 32005KT P6SM SKC
     FM240500 00000KT P6SM SKC=



000
FTUS41 KRLX 231400 AAA
TAFHTS
TAF AMD
KHTS 231446Z 2315/2412 31007KT P6SM SKC
     FM231600 32008G18KT P6SM SKC
     FM240100 00000KT P6SM SKC
     FM241000 00000KT P6SM BKN090=



000
FTUS41 KRLX 231400 AAA
TAFPKB
TAF AMD
KPKB 231446Z 2315/2412 30007KT P6SM SCT040
     FM231700 33010G18KT P6SM SKC
     FM240100 00000KT P6SM SKC=



000
FTUS41 KRLX 231400 AAA
TAFCKB
TAF AMD
KCKB 231446Z 2315/2412 31010KT P6SM BKN045
     FM231600 32011G20KT P6SM BKN040
     FM231800 32011G20KT P6SM SCT040
     FM232100 32009G18KT P6SM SKC
     FM240000 33006KT P6SM SKC
     FM240500 35003KT P6SM SKC=



000
FTUS41 KRLX 231100
TAFCRW
TAF
KCRW 231124Z 2312/2412 30007KT P6SM SKC
     FM231600 32009G18KT P6SM SKC
     FM240100 00000KT P6SM SKC=



000
FTUS41 KRLX 231100
TAFEKN
TAF
KEKN 231124Z 2312/2412 31011G18KT P6SM BKN040
     FM231800 31011G20KT P6SM SCT045
     FM232100 31010G18KT P6SM SKC
     FM240100 00000KT P6SM SKC=



000
FTUS41 KRLX 231100
TAFBKW
TAF
KBKW 231124Z 2312/2412 31012KT P6SM BKN025
     FM231500 32011G18KT P6SM SCT030
     FM231700 32011G20KT P6SM SKC
     FM240000 32005KT P6SM SKC
     FM240500 00000KT P6SM SKC=



000
FTUS41 KRLX 231100
TAFPKB
TAF
KPKB 231124Z 2312/2412 30007KT P6SM SCT040
     FM231700 33010G18KT P6SM SKC
     FM240100 00000KT P6SM SKC=



000
FTUS41 KRLX 231100
TAFHTS
TAF
KHTS 231124Z 2312/2412 31007KT P6SM SKC
     FM231600 32008G18KT P6SM SKC
     FM240100 00000KT P6SM SKC
     FM241000 00000KT P6SM BKN090=



000
FTUS41 KRLX 231100
TAFCKB
TAF
KCKB 231124Z 2312/2412 31010KT P6SM BKN045
     FM231600 32011G20KT P6SM BKN040
     FM231800 32011G20KT P6SM SCT040
     FM232100 32009G18KT P6SM SKC
     FM240000 33006KT P6SM SKC
     FM240500 35003KT P6SM SKC=



000
FTUS41 KRLX 231000 AAA
TAFEKN
TAF AMD
KEKN 231036Z 2311/2406 31011KT P6SM BKN040
     FM231600 31011G20KT P6SM BKN045
     FM231800 31011G20KT P6SM SCT045
     FM232100 31010G18KT P6SM SKC
     FM232300 31006KT P6SM SKC
     FM240100 00000KT P6SM SKC=



000
FTUS41 KRLX 231000 AAA
TAFBKW
TAF AMD
KBKW 231035Z 2311/2406 32012KT P6SM BKN025
     FM231500 32011G18KT P6SM SCT030
     FM231700 32011G20KT P6SM SKC
     FM240000 32005KT P6SM SKC
     FM240500 00000KT P6SM SKC=



000
FTUS41 KRLX 230700 AAA
TAFCRW
TAF AMD
KCRW 230705Z 2307/2406 30009KT P6SM SKC
     FM231600 32009G18KT P6SM SKC
     FM240100 00000KT P6SM SKC=



000
FTUS41 KRLX 230600 AAA
TAFPKB
TAF AMD
KPKB 230625Z 2306/2406 30008KT P6SM SCT040
     FM231600 33010G18KT P6SM SKC
     FM240100 00000KT P6SM SKC=



000
FTUS41 KRLX 230500
TAFCKB
TAF
KCKB 230537Z 2306/2406 32011KT P6SM BKN045
     FM231600 32011G20KT P6SM BKN040
     FM231700 32011G20KT P6SM SCT040
     FM231800 32010G18KT P6SM SKC
     FM240000 33006KT P6SM SKC
     FM240500 35003KT P6SM SKC=



000
FTUS41 KRLX 230500
TAFBKW
TAF
KBKW 230537Z 2306/2406 32012KT P6SM SKC
     FM231600 32011G20KT P6SM SKC
     FM240000 32005KT P6SM SKC
     FM240500 00000KT P6SM SKC=



000
FTUS41 KRLX 230500
TAFPKB
TAF
KPKB 230537Z 2306/2406 33009KT P6SM SKC
     FM231600 33010G18KT P6SM SKC
     FM240100 00000KT P6SM SKC=



000
FTUS41 KRLX 230500
TAFEKN
TAF
KEKN 230537Z 2306/2406 31010KT P6SM SCT025 BKN035
      TEMPO 2306/2309 BKN025
     FM230900 31010KT P6SM BKN030
     FM231600 31011G20KT P6SM BKN035
     FM231700 31011G20KT P6SM SCT035
     FM231800 31011G20KT P6SM SKC
     FM232300 31006KT P6SM SKC
     FM240100 00000KT P6SM SKC=



000
FTUS41 KRLX 230500
TAFCRW
TAF
KCRW 230537Z 2306/2406 32010G18KT P6SM SKC
     FM230900 32009KT P6SM SKC
     FM231600 32009G18KT P6SM SKC
     FM240100 00000KT P6SM SKC=



000
FTUS41 KRLX 230500
TAFHTS
TAF
KHTS 230537Z 2306/2406 33009KT P6SM SKC
     FM231600 32008G18KT P6SM SKC
     FM240100 00000KT P6SM SKC=



000
FTUS41 KRLX 230400 AAB
TAFBKW
TAF AMD
KBKW 230427Z 2304/2324 32013KT P6SM SKC
     FM230800 31010G15KT P6SM FEW045=



000
FTUS41 KRLX 230400 AAB
TAFHTS
TAF AMD
KHTS 230426Z 2304/2324 32011G19KT P6SM SKC
     FM230800 31007KT P6SM SKC=



000
FTUS41 KRLX 230400 AAB
TAFCRW
TAF AMD
KCRW 230426Z 2304/2324 31010G23KT P6SM SKC
     FM230800 30007KT P6SM SKC=



000
FTUS41 KRLX 230400 AAB
TAFCKB
TAF AMD
KCKB 230425Z 2304/2324 32012KT P6SM BKN035
     FM230800 30009KT P6SM BKN035
     FM231600 31011G17KT P6SM SCT035
     FM231800 31011G17KT P6SM SKC
     FM232300 32007KT P6SM SKC=



000
FTUS41 KRLX 230400 AAB
TAFPKB
TAF AMD
KPKB 230425Z 2304/2324 30009G18KT P6SM SKC
     FM230800 31006KT P6SM SKC=



000
FTUS41 KRLX 230400 AAB
TAFEKN
TAF AMD
KEKN 230423Z 2304/2324 32006KT P6SM BKN025
     FM231600 31013G20KT P6SM SCT030
     FM231800 31013G20KT P6SM SKC
     FM232300 31004KT P6SM SKC=



000
FTUS41 KRLX 230200 AAA
TAFHTS
TAF AMD
KHTS 230243Z 2303/2324 32019KT P6SM SKC
     FM230800 31007KT P6SM SKC=



000
FTUS41 KRLX 230200 AAA
TAFEKN
TAF AMD
KEKN 230243Z 2303/2324 30019G24KT P6SM SKC
     FM230800 30011G17KT P6SM SKC
     FM232300 31008KT P6SM FEW150=



000
FTUS41 KRLX 230200 AAA
TAFCKB
TAF AMD
KCKB 230243Z 2303/2324 32019G24KT P6SM SCT070
     FM230800 30009KT P6SM SCT070
     FM231500 31011G17KT P6SM FEW070
     FM232300 32007KT P6SM FEW150=



000
FTUS41 KRLX 230200 AAA
TAFBKW
TAF AMD
KBKW 230243Z 2303/2324 32018G23KT P6SM SCT045
     FM230800 31010G15KT P6SM FEW045=



000
FTUS41 KRLX 230200 AAA
TAFCRW
TAF AMD
KCRW 230243Z 2303/2324 31018G23KT P6SM SKC
     FM230800 30007KT P6SM SKC=



000
FTUS41 KRLX 230200 AAA
TAFPKB
TAF AMD
KPKB 230243Z 2303/2324 32018KT P6SM FEW060
     FM230800 31006KT P6SM SKC=



000
FTUS41 KRLX 222300
TAFCKB
TAF
KCKB 222332Z 2300/2324 28010G15KT P6SM BKN045
     FM230100 28010G15KT P6SM SCT045
     FM231300 30010G15KT P6SM SCT060=



000
FTUS41 KRLX 222300
TAFCRW
TAF
KCRW 222332Z 2300/2324 30015G25KT P6SM SCT050
     FM230500 30008KT P6SM SCT040
     FM231700 31008KT P6SM FEW140
     FM232300 33004KT P6SM FEW150=



000
FTUS41 KRLX 222300
TAFEKN
TAF
KEKN 222332Z 2300/2324 32011G17KT P6SM SCT050
     FM231000 30012G18KT P6SM SCT040
     FM231500 31013G20KT P6SM SCT060
     FM232200 31009KT P6SM FEW080=



000
FTUS41 KRLX 222300
TAFHTS
TAF
KHTS 222332Z 2300/2324 30014G21KT P6SM FEW060
     FM230400 31009KT P6SM FEW045
     FM231400 32007KT P6SM FEW150
     FM231700 32007KT P6SM SKC=



000
FTUS41 KRLX 222300
TAFBKW
TAF
KBKW 222332Z 2300/2324 31008KT P6SM BKN045
     FM230200 31009KT P6SM SCT045
     FM230900 31011G17KT P6SM SCT045
     FM231800 32011G17KT P6SM FEW150=



000
FTUS41 KRLX 222300
TAFPKB
TAF
KPKB 222332Z 2300/2324 30015G25KT P6SM SCT050
     FM230400 31008KT P6SM SCT035
     FM231700 32009KT P6SM FEW140
     FM232300 33005KT P6SM FEW150=



000
FTUS41 KRLX 222200 AAB
TAFEKN
TAF AMD
KEKN 222217Z 2222/2318 30011G17KT P6SM SCT045 BKN060
     FM231500 31013G20KT P6SM SCT060=



000
FTUS41 KRLX 222200 AAA
TAFHTS
TAF AMD
KHTS 222217Z 2222/2318 30013G20KT P6SM SCT050
     FM230400 31009KT P6SM FEW045
     FM231400 32007KT P6SM FEW150
     FM231700 32007KT P6SM SKC=



000
FTUS41 KRLX 222200 AAC
TAFCKB
TAF AMD
KCKB 222217Z 2222/2318 32007G15KT P6SM SCT050
     FM231300 30010G15KT P6SM SCT060=



000
FTUS41 KRLX 222200 AAA
TAFCRW
TAF AMD
KCRW 222217Z 2222/2318 31010G15KT P6SM BKN035
     FM222300 30012G18KT P6SM SCT050
     FM230500 30008KT P6SM SCT040
     FM231700 31008KT P6SM FEW140=



000
FTUS41 KRLX 222200 AAA
TAFBKW
TAF AMD
KBKW 222217Z 2222/2318 29011G17KT P6SM BKN040
     FM230200 31009KT P6SM SCT045
     FM230900 31011G17KT P6SM SCT045=



000
FTUS41 KRLX 222200 AAB
TAFPKB
TAF AMD
KPKB 222217Z 2222/2318 30015G25KT P6SM SCT045
     FM230400 31008KT P6SM SCT035
     FM231700 32009KT P6SM FEW140=



000
FTUS41 KRLX 222000 AAB
TAFCKB
TAF AMD
KCKB 222006Z 2220/2318 34020G30KT P6SM SHRA VCTS SCT015 BKN035CB
     FM222030 32010G15KT P6SM BKN045
     FM231300 30010G15KT P6SM SCT060=



000
FTUS41 KRLX 221900 AAA
TAFEKN
TAF AMD
KEKN 221930Z 2220/2318 28011G17KT 6SM BR OVC015
     FM222120 32015G25KT 5SM -TSRA SCT015 BKN035CB
     FM222140 32011G17KT P6SM SCT015 BKN035
     FM231500 31013G20KT P6SM SCT060=



000
FTUS41 KRLX 221900 AAA
TAFPKB
TAF AMD
KPKB 221926Z 2219/2318 29011G17KT 4SM TSRA BKN040CB
     FM221940 29011G17KT P6SM SCT040
     FM222100 30012G18KT P6SM SCT045
     FM230400 31008KT P6SM SCT035
     FM231700 32009KT P6SM FEW140=



000
FTUS41 KRLX 221900 AAA
TAFCKB
TAF AMD
KCKB 221906Z 2219/2318 27006KT P6SM BKN015 BKN035
     FM221940 28018G30KT 3SM TSRA BKN015 BKN035CB
     FM222000 28010G15KT P6SM SHRA SCT015 BKN035CB
     FM230100 28010G15KT P6SM BKN045
     FM231300 30010G15KT P6SM SCT060=



000
FTUS41 KRLX 221700
TAFPKB
TAF
KPKB 221720Z 2218/2318 29011G17KT P6SM BKN040
     FM222100 30012G18KT P6SM SCT045
     FM230400 31008KT P6SM SCT035
     FM231700 32009KT P6SM FEW140=



000
FTUS41 KRLX 221700
TAFCRW
TAF
KCRW 221720Z 2218/2318 27010G15KT P6SM BKN035
     FM222300 30012G18KT P6SM SCT050
     FM230500 30008KT P6SM SCT040
     FM231700 31008KT P6SM FEW140=



000
FTUS41 KRLX 221700
TAFHTS
TAF
KHTS 221720Z 2218/2318 29011G17KT P6SM BKN040
     FM222100 30013G20KT P6SM SCT050
     FM230400 31009KT P6SM FEW045
     FM231400 32007KT P6SM FEW150
     FM231700 32007KT P6SM SKC=



000
FTUS41 KRLX 221700
TAFBKW
TAF
KBKW 221720Z 2218/2318 29012G18KT 5SM BR VCTS OVC035CB
     FM221900 29011G17KT P6SM OVC040
     FM230200 31009KT P6SM SCT045
     FM230900 31011G17KT P6SM SCT045=



000
FTUS41 KRLX 221700
TAFCKB
TAF
KCKB 221720Z 2218/2318 26011G17KT 6SM BR BKN035
     FM230000 28010G15KT P6SM SCT045
     FM230100 28010G15KT P6SM BKN045
     FM231300 30010G15KT P6SM SCT060=



000
FTUS41 KRLX 221700
TAFEKN
TAF
KEKN 221720Z 2218/2318 27011G17KT 5SM BR VCTS OVC030CB
     FM221900 28011G17KT 6SM BR OVC035
     FM222300 32011G17KT P6SM BKN035
     FM230000 32011G17KT P6SM BKN030
     FM231000 30012G18KT P6SM BKN035
     FM231500 31013G20KT P6SM SCT060=



000
FTUS41 KRLX 221400 AAA
TAFCKB
TAF AMD
KCKB 221426Z 2214/2312 22005KT P6SM OVC030
     FM221500 24010KT P6SM -SHRA OVC045
     FM221700 25011G19KT 6SM SHRA OVC045
     FM222100 30014G22KT P6SM BKN045
     FM230700 28010G16KT P6SM BKN035=



000
FTUS41 KRLX 221400 AAA
TAFPKB
TAF AMD
KPKB 221426Z 2214/2312 26008KT P6SM -SHRA OVC035
     FM221700 28010G20KT 6SM SHRA OVC035
     FM222100 31010G24KT P6SM SCT045
     FM230300 30010KT P6SM SCT035
     FM230600 29005KT P6SM SCT040=



000
FTUS41 KRLX 221400 AAA
TAFEKN
TAF AMD
KEKN 221426Z 2214/2312 25006KT P6SM OVC070
     FM221500 27010G16KT 5SM -SHRA OVC045
     FM221700 27011G20KT P6SM VCSH OVC045
     FM221900 28013G21KT 6SM SHRA OVC035
     FM230000 32014G22KT P6SM BKN030=



000
FTUS41 KRLX 221400 AAA
TAFCRW
TAF AMD
KCRW 221426Z 2214/2312 25004KT P6SM VCSH OVC050
     FM221500 26010G15KT 6SM SHRA BKN035
     FM221900 28012G23KT P6SM BKN035
     FM222200 30012G18KT P6SM SCT050
     FM230200 30007KT P6SM FEW040=



000
FTUS41 KRLX 221400 AAA
TAFBKW
TAF AMD
KBKW 221426Z 2214/2312 25004KT P6SM OVC070
     FM221500 27009G18KT P6SM OVC040
     FM221600 28011G17KT 5SM -SHRA OVC045
     FM221800 29012G19KT P6SM VCSH OVC040
     FM222000 29014G25KT 6SM -SHRA OVC040
     FM222200 31008G19KT P6SM SCT035=



000
FTUS41 KRLX 221400 AAA
TAFHTS
TAF AMD
KHTS 221426Z 2214/2312 21004KT P6SM VCSH BKN080 OVC100
     FM221500 27008G13KT P6SM VCSH OVC035
     FM221600 29011G23KT 6SM -SHRA OVC040
     FM221700 30010G22KT P6SM SCT050
     FM222300 30008KT P6SM FEW050=



000
FTUS41 KRLX 221100
TAFCRW
TAF
KCRW 221125Z 2212/2312 00000KT 6SM -SHRA OVC050
     FM221300 25004KT P6SM VCSH OVC050
     FM221500 26010G15KT 6SM SHRA BKN035
     FM221900 28012G23KT P6SM BKN035
     FM222200 30012G18KT P6SM SCT050
     FM230200 30007KT P6SM FEW040=



000
FTUS41 KRLX 221100
TAFEKN
TAF
KEKN 221125Z 2212/2312 00000KT 6SM -SHRA OVC080
     FM221300 25006KT P6SM OVC080
     FM221500 27010G16KT 5SM -SHRA OVC045
     FM221700 27011G20KT P6SM VCSH OVC045
     FM221900 28013G21KT 6SM SHRA OVC035
     FM230000 32014G22KT P6SM BKN030=



000
FTUS41 KRLX 221100
TAFBKW
TAF
KBKW 221125Z 2212/2312 25004KT P6SM OVC060
     FM221500 27009G18KT P6SM OVC040
     FM221600 28011G17KT 5SM -SHRA OVC045
     FM221800 29012G19KT P6SM VCSH OVC040
     FM222000 29014G25KT 6SM -SHRA OVC040
     FM222200 31008G19KT P6SM SCT035=



000
FTUS41 KRLX 221100
TAFCKB
TAF
KCKB 221125Z 2212/2312 VRB03KT 6SM -SHRA OVC060
     FM221300 22005KT P6SM OVC045
     FM221500 24010KT P6SM -SHRA OVC045
     FM221700 25011G19KT 6SM SHRA OVC045
     FM222100 30014G22KT P6SM BKN045
     FM230700 28010G16KT P6SM BKN035=



000
FTUS41 KRLX 221100
TAFHTS
TAF
KHTS 221125Z 2212/2312 21004KT P6SM VCSH OVC040
     FM221500 27008G13KT P6SM VCSH OVC035
     FM221600 29011G23KT 6SM -SHRA OVC040
     FM221700 30010G22KT P6SM SCT050
     FM222300 30008KT P6SM FEW050=



000
FTUS41 KRLX 221100
TAFPKB
TAF
KPKB 221125Z 2212/2312 00000KT 6SM -SHRA OVC080
     FM221300 26004KT P6SM VCSH OVC035
     FM221400 26008KT P6SM -SHRA OVC035
     FM221700 28010G20KT 6SM SHRA OVC035
     FM222100 31010G24KT P6SM SCT045
     FM230300 30010KT P6SM SCT035
     FM230600 29005KT P6SM SCT040=



000
FTUS41 KRLX 221000 AAB
TAFCRW
TAF AMD
KCRW 221020Z 2210/2306 25004KT P6SM -SHRA OVC060
      TEMPO 2210/2212 5SM -SHRA
     FM221700 26008G14KT 5SM SHRA OVC050
     FM221900 27010G18KT P6SM BKN040
     FM222200 30007KT P6SM SCT045=



000
FTUS41 KRLX 220900 AAA
TAFCRW
TAF AMD
KCRW 220930Z 2210/2306 26005KT P6SM VCSH OVC090
     FM221000 25004KT P6SM -SHRA OVC060
     FM221700 26008G14KT 5SM SHRA OVC050
     FM221900 27010G18KT P6SM BKN040
     FM222200 30007KT P6SM SCT045=



000
FTUS41 KRLX 220900 AAA
TAFBKW
TAF AMD
KBKW 220930Z 2210/2306 19005KT P6SM BKN250
     FM221100 25004KT P6SM OVC100
     FM221500 27009G18KT P6SM OVC040
     FM221800 26010G17KT 5SM SHRA OVC040
     FM222000 27011G20KT P6SM BKN035
     FM222200 31014G24KT P6SM BKN035
     FM230300 31007KT P6SM SCT040=



000
FTUS41 KRLX 220900 AAA
TAFEKN
TAF AMD
KEKN 220930Z 2210/2306 00000KT P6SM BKN250
     FM221500 25008G16KT P6SM OVC070
     FM221700 26008G17KT 5SM SHRA OVC040
     FM222000 27010G19KT P6SM BKN035
     FM230400 27010G19KT P6SM BKN030=



000
FTUS41 KRLX 220900 AAA
TAFHTS
TAF AMD
KHTS 220930Z 2210/2306 25005KT P6SM -SHRA OVC070
     FM221200 25007KT P6SM -SHRA OVC060
     FM221600 27008G13KT 5SM SHRA OVC040
     FM221700 27009G15KT P6SM BKN040=



000
FTUS41 KRLX 220900 AAA
TAFPKB
TAF AMD
KPKB 220930Z 2210/2306 25006KT P6SM -SHRA OVC080
     FM221200 26006KT P6SM OVC060
     FM221600 27009KT 5SM SHRA OVC040
     FM221700 28010G16KT P6SM BKN035
     FM221900 30012G19KT P6SM BKN035
     FM222100 30008KT P6SM BKN035=



000
FTUS41 KRLX 220900 AAA
TAFCKB
TAF AMD
KCKB 220930Z 2210/2306 19005KT P6SM BKN250
     FM221200 VRB04KT P6SM -SHRA OVC060
     FM221600 24009KT 5SM SHRA OVC035
     FM221700 25009G17KT 4SM SHRA OVC040
     FM221900 26011G20KT P6SM BKN035=



    US Dept of Commerce
    National Oceanic and Atmospheric Administration
    National Weather Service
    1325 East West Highway
    Silver Spring, MD 20910
    Page Author: NWS Internet Services Team
Disclaimer
Information Quality
Credits
Glossary
Privacy Policy
Freedom of Information Act (FOIA)
About Us
Career Opportunities